createdAt,value
2018-08-04T00:00:51.070Z,89.60
2018-08-04T00:01:54.458Z,89.80
2018-08-04T00:02:57.940Z,89.70
2018-08-04T00:04:07.778Z,90.00
2018-08-04T00:05:11.475Z,89.90
2018-08-04T00:06:14.864Z,90.00
2018-08-04T00:07:18.177Z,90.10
2018-08-04T00:08:21.536Z,90.00
2018-08-04T00:09:24.863Z,90.10
2018-08-04T00:10:28.179Z,90.00
2018-08-04T00:11:31.558Z,90.10
2018-08-04T00:12:34.914Z,90.10
2018-08-04T00:13:38.286Z,90.10
2018-08-04T00:14:41.592Z,90.00
2018-08-04T00:15:44.943Z,90.40
2018-08-04T00:16:48.463Z,90.70
2018-08-04T00:17:51.783Z,90.70
2018-08-04T00:18:55.187Z,90.70
2018-08-04T00:19:58.499Z,90.80
2018-08-04T00:21:01.812Z,90.70
2018-08-04T00:22:05.149Z,90.60
2018-08-04T00:23:08.486Z,90.50
2018-08-04T00:24:11.879Z,90.50
2018-08-04T00:25:15.238Z,90.50
2018-08-04T00:26:18.570Z,90.60
2018-08-04T00:27:21.903Z,90.60
2018-08-04T00:28:25.259Z,90.70
2018-08-04T00:29:28.664Z,90.90
2018-08-04T00:30:31.975Z,90.90
2018-08-04T00:31:35.325Z,90.90
2018-08-04T00:32:38.682Z,91.10
2018-08-04T00:33:42.016Z,91.20
2018-08-04T00:34:45.395Z,91.40
2018-08-04T00:35:48.792Z,91.50
2018-08-04T00:36:52.155Z,91.60
2018-08-04T00:37:55.482Z,91.60
2018-08-04T00:38:58.810Z,91.60
2018-08-04T00:40:02.129Z,92.10
2018-08-04T00:41:05.628Z,91.90
2018-08-04T00:42:09.015Z,91.90
2018-08-04T00:43:12.353Z,92.20
2018-08-04T00:44:15.695Z,92.60
2018-08-04T00:45:19.023Z,92.80
2018-08-04T00:46:25.298Z,93.00
2018-08-04T00:47:28.675Z,93.00
2018-08-04T00:48:32.006Z,92.90
2018-08-04T00:49:35.347Z,93.10
2018-08-04T00:50:38.695Z,93.10
2018-08-04T00:51:42.013Z,93.40
2018-08-04T00:52:45.368Z,93.30
2018-08-04T00:53:48.691Z,93.20
2018-08-04T00:54:52.026Z,93.40
2018-08-04T00:55:55.380Z,93.50
2018-08-04T00:56:58.960Z,93.50
2018-08-04T00:58:02.324Z,93.70
2018-08-04T00:59:05.716Z,93.90
2018-08-04T01:00:09.056Z,93.90
2018-08-04T01:01:12.380Z,94.00
2018-08-04T01:02:15.694Z,94.10
2018-08-04T01:03:19.007Z,94.20
2018-08-04T01:04:28.722Z,94.20
2018-08-04T01:05:32.023Z,94.20
2018-08-04T01:06:35.339Z,94.30
2018-08-04T01:07:38.650Z,94.40
2018-08-04T01:08:41.977Z,94.50
2018-08-04T01:09:45.360Z,94.60
2018-08-04T01:10:48.667Z,94.70
2018-08-04T01:11:52.019Z,94.80
2018-08-04T01:12:55.326Z,94.80
2018-08-04T01:13:58.675Z,95.00
2018-08-04T01:15:02.239Z,95.30
2018-08-04T01:16:05.676Z,95.40
2018-08-04T01:17:09.046Z,95.80
2018-08-04T01:18:12.376Z,95.40
2018-08-04T01:19:15.694Z,95.50
2018-08-04T01:20:19.063Z,95.50
2018-08-04T01:21:22.392Z,95.90
2018-08-04T01:22:25.743Z,95.80
2018-08-04T01:23:29.092Z,95.80
2018-08-04T01:24:32.398Z,96.00
2018-08-04T01:25:35.715Z,96.20
2018-08-04T01:26:39.039Z,96.60
2018-08-04T01:27:42.401Z,96.50
2018-08-04T01:28:45.714Z,96.60
2018-08-04T01:29:49.042Z,96.80
2018-08-04T01:30:52.352Z,96.90
2018-08-04T01:32:58.779Z,96.90
2018-08-04T01:34:02.110Z,96.90
2018-08-04T01:35:05.556Z,97.10
2018-08-04T01:36:08.903Z,97.30
2018-08-04T01:37:12.230Z,97.30
2018-08-04T01:38:15.609Z,97.30
2018-08-04T01:39:19.010Z,97.50
2018-08-04T01:40:22.334Z,97.60
2018-08-04T01:41:25.654Z,97.70
2018-08-04T01:42:28.966Z,97.70
2018-08-04T01:43:32.329Z,97.50
2018-08-04T01:44:35.658Z,97.70
2018-08-04T01:45:38.962Z,98.10
2018-08-04T01:46:42.309Z,98.60
2018-08-04T01:47:45.627Z,99.10
2018-08-04T01:48:48.989Z,99.70
2018-08-04T01:49:52.316Z,99.90
2018-08-04T01:50:55.649Z,99.90
2018-08-04T01:53:02.042Z,99.90
2018-08-04T01:54:05.446Z,99.90
2018-08-04T01:55:08.761Z,99.90
2018-08-04T01:56:12.081Z,99.90
2018-08-04T01:57:15.394Z,99.90
2018-08-04T01:58:18.742Z,99.90
2018-08-04T01:59:28.601Z,99.90
2018-08-04T02:00:31.931Z,99.90
2018-08-04T02:01:35.264Z,99.90
2018-08-04T02:02:38.814Z,99.90
2018-08-04T02:03:42.164Z,99.90
2018-08-04T02:04:45.486Z,99.90
2018-08-04T02:05:48.794Z,99.90
2018-08-04T02:06:52.155Z,99.90
2018-08-04T02:07:55.506Z,99.90
2018-08-04T02:08:58.818Z,99.90
2018-08-04T02:10:02.135Z,99.90
2018-08-04T02:11:05.483Z,99.90
2018-08-04T02:12:08.839Z,99.90
2018-08-04T02:13:12.190Z,99.90
2018-08-04T02:14:15.514Z,99.90
2018-08-04T02:15:18.854Z,99.90
2018-08-04T02:16:22.231Z,99.90
2018-08-04T02:17:25.658Z,99.90
2018-08-04T02:18:28.982Z,99.90
2018-08-04T02:19:32.354Z,99.90
2018-08-04T02:20:35.709Z,99.90
2018-08-04T02:21:39.035Z,99.90
2018-08-04T02:22:42.398Z,99.90
2018-08-04T02:23:45.743Z,99.90
2018-08-04T02:24:49.061Z,99.90
2018-08-04T02:25:52.379Z,99.90
2018-08-04T02:26:55.730Z,99.90
2018-08-04T02:27:59.095Z,99.90
2018-08-04T02:29:02.418Z,99.90
2018-08-04T02:30:05.844Z,99.90
2018-08-04T02:31:09.182Z,99.90
2018-08-04T02:32:12.554Z,99.90
2018-08-04T02:33:15.888Z,99.90
2018-08-04T02:35:22.302Z,99.90
2018-08-04T02:36:25.631Z,99.90
2018-08-04T02:37:28.968Z,99.90
2018-08-04T02:38:32.295Z,99.90
2018-08-04T02:39:35.623Z,99.90
2018-08-04T02:40:38.997Z,99.90
2018-08-04T02:41:42.335Z,99.90
2018-08-04T02:42:45.701Z,99.90
2018-08-04T02:43:49.035Z,99.90
2018-08-04T02:44:52.371Z,99.90
2018-08-04T02:45:55.702Z,99.90
2018-08-04T02:46:59.053Z,99.90
2018-08-04T02:48:02.436Z,99.90
2018-08-04T02:49:06.136Z,99.90
2018-08-04T02:50:09.706Z,99.90
2018-08-04T02:51:13.092Z,99.90
2018-08-04T02:52:16.414Z,99.90
2018-08-04T02:53:19.723Z,99.90
2018-08-04T02:54:23.051Z,99.90
2018-08-04T02:55:26.387Z,99.90
2018-08-04T02:56:29.731Z,99.90
2018-08-04T02:57:33.184Z,99.90
2018-08-04T02:58:36.501Z,99.90
2018-08-04T02:59:39.826Z,99.90
2018-08-04T03:00:43.186Z,99.90
2018-08-04T03:01:46.510Z,99.90
2018-08-04T03:02:49.846Z,99.90
2018-08-04T03:03:53.183Z,99.90
2018-08-04T03:04:56.504Z,99.90
2018-08-04T03:05:59.954Z,99.90
2018-08-04T03:07:03.302Z,99.90
2018-08-04T03:08:06.637Z,99.90
2018-08-04T03:09:11.723Z,99.90
2018-08-04T03:10:15.027Z,99.90
2018-08-04T03:11:18.374Z,99.90
2018-08-04T03:12:21.759Z,99.90
2018-08-04T03:13:25.091Z,99.90
2018-08-04T03:14:28.451Z,99.90
2018-08-04T03:15:31.826Z,99.90
2018-08-04T03:16:35.153Z,99.90
2018-08-04T03:17:38.492Z,99.90
2018-08-04T03:18:41.799Z,99.90
2018-08-04T03:19:45.119Z,99.90
2018-08-04T03:20:48.491Z,99.90
2018-08-04T03:21:51.821Z,99.90
2018-08-04T03:22:55.187Z,99.90
2018-08-04T03:23:58.556Z,99.90
2018-08-04T03:25:04.934Z,99.90
2018-08-04T03:26:08.255Z,99.90
2018-08-04T03:27:11.598Z,99.90
2018-08-04T03:28:14.975Z,99.90
2018-08-04T03:29:18.292Z,99.90
2018-08-04T03:30:21.611Z,99.90
2018-08-04T03:31:24.946Z,99.90
2018-08-04T03:32:28.282Z,99.90
2018-08-04T03:33:31.642Z,99.90
2018-08-04T03:34:34.987Z,99.90
2018-08-04T03:35:38.305Z,99.90
2018-08-04T03:36:41.629Z,99.90
2018-08-04T03:37:44.959Z,99.90
2018-08-04T03:38:48.323Z,99.90
2018-08-04T03:39:51.655Z,99.90
2018-08-04T03:40:55.006Z,99.90
2018-08-04T03:41:58.331Z,99.90
2018-08-04T03:43:01.669Z,99.90
2018-08-04T03:44:05.042Z,99.90
2018-08-04T03:45:08.371Z,99.90
2018-08-04T03:46:11.686Z,99.90
2018-08-04T03:47:14.994Z,99.90
2018-08-04T03:48:18.337Z,99.90
2018-08-04T03:49:21.706Z,99.90
2018-08-04T03:50:25.035Z,99.90
2018-08-04T03:51:28.348Z,99.90
2018-08-04T03:52:31.672Z,99.90
2018-08-04T03:53:35.030Z,99.90
2018-08-04T03:54:38.410Z,99.90
2018-08-04T03:55:41.737Z,99.90
2018-08-04T03:56:45.047Z,99.90
2018-08-04T03:57:48.435Z,99.90
2018-08-04T03:58:51.769Z,99.90
2018-08-04T03:59:55.162Z,99.90
2018-08-04T04:00:58.497Z,99.90
2018-08-04T04:02:01.867Z,99.90
2018-08-04T04:03:05.336Z,99.90
2018-08-04T04:06:14.987Z,99.90
2018-08-04T04:07:18.302Z,99.90
2018-08-04T04:08:21.634Z,99.90
2018-08-04T04:09:24.964Z,99.90
2018-08-04T04:10:28.338Z,99.90
2018-08-04T04:11:31.711Z,99.90
2018-08-04T04:13:38.146Z,99.90
2018-08-04T04:14:41.567Z,99.90
2018-08-04T04:15:44.895Z,99.90
2018-08-04T04:16:48.252Z,99.90
2018-08-04T04:17:51.567Z,99.90
2018-08-04T04:18:54.938Z,99.90
2018-08-04T04:19:58.282Z,99.90
2018-08-04T04:21:01.614Z,99.90
2018-08-04T04:22:04.978Z,99.90
2018-08-04T04:23:08.319Z,99.90
2018-08-04T04:24:11.667Z,99.90
2018-08-04T04:25:15.006Z,99.90
2018-08-04T04:26:18.358Z,99.90
2018-08-04T04:27:21.672Z,99.90
2018-08-04T04:28:24.996Z,99.90
2018-08-04T04:29:28.319Z,99.90
2018-08-04T04:30:31.682Z,99.90
2018-08-04T04:31:34.997Z,99.90
2018-08-04T04:32:38.322Z,99.90
2018-08-04T04:33:41.647Z,99.90
2018-08-04T04:34:44.955Z,99.90
2018-08-04T04:35:48.321Z,99.90
2018-08-04T04:36:51.719Z,99.90
2018-08-04T04:37:55.062Z,99.90
2018-08-04T04:38:58.383Z,99.90
2018-08-04T04:40:01.992Z,99.90
2018-08-04T04:41:05.367Z,99.90
2018-08-04T04:42:08.694Z,99.90
2018-08-04T04:43:11.999Z,99.90
2018-08-04T04:44:15.315Z,99.90
2018-08-04T04:45:18.656Z,99.90
2018-08-04T04:46:21.996Z,99.90
2018-08-04T04:47:25.310Z,99.90
2018-08-04T04:48:28.696Z,99.90
2018-08-04T04:49:31.979Z,99.90
2018-08-04T04:50:35.342Z,99.90
2018-08-04T04:51:39.260Z,99.90
2018-08-04T04:52:42.578Z,99.90
2018-08-04T04:53:45.932Z,99.90
2018-08-04T04:54:49.391Z,99.90
2018-08-04T04:55:52.727Z,99.90
2018-08-04T04:56:56.043Z,99.90
2018-08-04T04:57:59.388Z,99.90
2018-08-04T04:59:02.698Z,99.90
2018-08-04T05:00:06.251Z,99.90
2018-08-04T05:01:09.650Z,99.90
2018-08-04T05:02:12.968Z,99.90
2018-08-04T05:03:16.329Z,99.90
2018-08-04T05:04:19.655Z,99.90
2018-08-04T05:05:22.991Z,99.90
2018-08-04T05:06:26.342Z,99.90
2018-08-04T05:07:29.661Z,99.90
2018-08-04T05:08:32.972Z,99.90
2018-08-04T05:09:36.329Z,99.90
2018-08-04T05:10:39.635Z,99.90
2018-08-04T05:11:43.003Z,99.90
2018-08-04T05:12:46.312Z,99.90
2018-08-04T05:13:49.685Z,99.90
2018-08-04T05:14:53.033Z,99.90
2018-08-04T05:15:56.379Z,99.90
2018-08-04T05:16:59.711Z,99.90
2018-08-04T05:18:03.119Z,99.90
2018-08-04T05:19:06.460Z,99.90
2018-08-04T05:20:09.823Z,99.90
2018-08-04T05:21:13.142Z,99.90
2018-08-04T05:22:16.487Z,99.90
2018-08-04T05:23:19.795Z,99.90
2018-08-04T05:24:23.113Z,99.90
2018-08-04T05:25:26.448Z,99.90
2018-08-04T05:26:29.804Z,99.90
2018-08-04T05:27:33.120Z,99.90
2018-08-04T05:28:36.503Z,99.90
2018-08-04T05:29:39.829Z,99.90
2018-08-04T05:30:43.156Z,99.90
2018-08-04T05:31:46.504Z,99.90
2018-08-04T05:32:49.824Z,99.90
2018-08-04T05:33:53.531Z,99.90
2018-08-04T05:34:56.841Z,99.90
2018-08-04T05:36:00.160Z,99.90
2018-08-04T05:37:03.515Z,99.90
2018-08-04T05:39:11.597Z,99.90
2018-08-04T05:40:14.950Z,99.90
2018-08-04T05:41:18.299Z,99.90
2018-08-04T05:42:21.670Z,99.90
2018-08-04T05:43:25.096Z,99.90
2018-08-04T05:44:28.423Z,99.90
2018-08-04T05:45:31.738Z,99.90
2018-08-04T05:46:35.059Z,99.90
2018-08-04T05:47:38.779Z,99.90
2018-08-04T05:48:42.074Z,99.90
2018-08-04T05:49:45.531Z,99.90
2018-08-04T05:50:48.919Z,99.90
2018-08-04T05:51:52.359Z,99.90
2018-08-04T05:52:55.783Z,99.90
2018-08-04T05:53:59.151Z,99.90
2018-08-04T05:55:02.533Z,99.90
2018-08-04T05:56:06.002Z,99.90
2018-08-04T05:57:09.333Z,99.90
2018-08-04T05:58:12.687Z,99.90
2018-08-04T05:59:15.999Z,99.90
2018-08-04T06:00:19.332Z,99.90
2018-08-04T06:01:22.663Z,99.90
2018-08-04T06:02:26.002Z,99.90
2018-08-04T06:03:29.318Z,99.90
2018-08-04T06:04:32.627Z,99.90
2018-08-04T06:05:35.951Z,99.90
2018-08-04T06:06:39.299Z,99.80
2018-08-04T06:07:42.632Z,99.70
2018-08-04T06:08:45.957Z,99.80
2018-08-04T06:09:49.355Z,99.70
2018-08-04T06:10:52.671Z,99.50
2018-08-04T06:11:56.017Z,99.40
2018-08-04T06:12:59.333Z,98.80
2018-08-04T06:14:02.646Z,98.90
2018-08-04T06:15:06.106Z,99.10
2018-08-04T06:16:09.663Z,98.60
2018-08-04T06:17:12.958Z,99.20
2018-08-04T06:18:16.298Z,98.80
2018-08-04T06:19:19.610Z,99.10
2018-08-04T06:20:23.047Z,98.50
2018-08-04T06:21:26.371Z,98.30
2018-08-04T06:22:29.687Z,98.30
2018-08-04T06:23:33.006Z,98.20
2018-08-04T06:24:36.311Z,97.90
2018-08-04T06:25:39.654Z,98.00
2018-08-04T06:26:43.031Z,97.80
2018-08-04T06:27:46.382Z,97.60
2018-08-04T06:28:49.713Z,97.40
2018-08-04T06:29:53.082Z,97.00
2018-08-04T06:30:56.424Z,97.10
2018-08-04T06:31:59.742Z,96.90
2018-08-04T06:33:03.112Z,97.30
2018-08-04T06:34:06.725Z,97.00
2018-08-04T06:35:10.078Z,96.90
2018-08-04T06:36:13.399Z,96.60
2018-08-04T06:37:16.744Z,96.20
2018-08-04T06:38:20.112Z,95.90
2018-08-04T06:39:23.432Z,96.20
2018-08-04T06:40:26.769Z,95.90
2018-08-04T06:41:30.137Z,95.70
2018-08-04T06:42:33.451Z,95.80
2018-08-04T06:43:36.823Z,95.60
2018-08-04T06:44:40.130Z,95.50
2018-08-04T06:45:43.487Z,95.40
2018-08-04T06:46:46.806Z,95.40
2018-08-04T06:47:50.148Z,95.30
2018-08-04T06:48:53.593Z,95.50
2018-08-04T06:49:56.904Z,95.40
2018-08-04T06:51:00.250Z,95.40
2018-08-04T06:52:03.592Z,95.60
2018-08-04T06:53:06.946Z,95.50
2018-08-04T06:54:10.668Z,95.50
2018-08-04T06:55:14.008Z,95.50
2018-08-04T06:56:17.337Z,95.80
2018-08-04T06:57:20.674Z,95.90
2018-08-04T06:58:24.021Z,95.90
2018-08-04T06:59:27.903Z,95.70
2018-08-04T07:00:31.282Z,95.90
2018-08-04T07:01:34.611Z,95.80
2018-08-04T07:02:37.922Z,95.70
2018-08-04T07:03:41.267Z,95.80
2018-08-04T07:04:44.751Z,95.90
2018-08-04T07:05:48.116Z,96.00
2018-08-04T07:06:51.452Z,96.00
2018-08-04T07:07:54.803Z,95.90
2018-08-04T07:08:58.161Z,95.90
2018-08-04T07:10:01.489Z,95.50
2018-08-04T07:11:04.802Z,95.60
2018-08-04T07:12:08.140Z,95.80
2018-08-04T07:13:11.512Z,95.30
2018-08-04T07:14:14.842Z,95.80
2018-08-04T07:15:18.208Z,95.50
2018-08-04T07:16:21.565Z,95.40
2018-08-04T07:17:24.862Z,94.90
2018-08-04T07:18:28.190Z,94.60
2018-08-04T07:19:31.519Z,94.30
2018-08-04T07:20:34.882Z,94.20
2018-08-04T07:21:38.193Z,93.80
2018-08-04T07:22:41.540Z,93.40
2018-08-04T07:23:44.898Z,93.40
2018-08-04T07:24:48.214Z,93.30
2018-08-04T07:25:51.522Z,92.90
2018-08-04T07:26:54.883Z,92.70
2018-08-04T07:27:58.205Z,92.50
2018-08-04T07:29:01.580Z,92.30
2018-08-04T07:30:10.346Z,92.60
2018-08-04T07:31:13.659Z,92.50
2018-08-04T07:32:17.026Z,92.60
2018-08-04T07:33:20.362Z,92.60
2018-08-04T07:34:23.947Z,92.40
2018-08-04T07:35:27.207Z,92.30
2018-08-04T07:36:30.595Z,92.10
2018-08-04T07:37:33.898Z,91.90
2018-08-04T07:38:37.207Z,91.70
2018-08-04T07:39:40.510Z,91.70
2018-08-04T07:40:43.858Z,91.70
2018-08-04T07:41:47.292Z,91.90
2018-08-04T07:42:50.590Z,92.50
2018-08-04T07:43:53.908Z,91.50
2018-08-04T07:44:57.223Z,91.40
2018-08-04T07:46:00.581Z,91.50
2018-08-04T07:47:03.939Z,91.40
2018-08-04T07:48:07.252Z,91.30
2018-08-04T07:49:10.616Z,91.30
2018-08-04T07:50:13.890Z,91.40
2018-08-04T07:51:17.233Z,91.20
2018-08-04T07:54:26.663Z,90.70
2018-08-04T07:56:33.158Z,90.80
2018-08-04T07:57:36.454Z,90.60
2018-08-04T07:58:39.771Z,91.10
2018-08-04T07:59:43.087Z,90.70
2018-08-04T08:00:46.440Z,90.70
2018-08-04T08:01:49.743Z,90.70
2018-08-04T08:02:53.046Z,91.10
2018-08-04T08:03:56.402Z,91.30
2018-08-04T08:04:59.751Z,91.50
2018-08-04T08:06:03.107Z,91.80
2018-08-04T08:07:06.466Z,91.30
2018-08-04T08:08:09.775Z,91.30
2018-08-04T08:09:13.107Z,91.40
2018-08-04T08:10:16.438Z,91.70
2018-08-04T08:11:19.904Z,92.00
2018-08-04T08:12:23.487Z,91.90
2018-08-04T08:13:26.826Z,91.80
2018-08-04T08:14:30.175Z,91.60
2018-08-04T08:15:33.507Z,91.50
2018-08-04T08:16:36.919Z,91.30
2018-08-04T08:17:40.222Z,91.20
2018-08-04T08:18:43.558Z,91.20
2018-08-04T08:19:47.013Z,91.00
2018-08-04T08:20:50.312Z,90.90
2018-08-04T08:21:53.637Z,90.90
2018-08-04T08:22:56.999Z,91.30
2018-08-04T08:24:00.351Z,90.90
2018-08-04T08:25:03.978Z,90.70
2018-08-04T08:26:10.167Z,90.60
2018-08-04T08:27:13.541Z,90.60
2018-08-04T08:28:16.859Z,90.70
2018-08-04T08:31:26.370Z,90.70
2018-08-04T08:32:32.600Z,90.90
2018-08-04T08:33:36.323Z,90.40
2018-08-04T08:34:39.630Z,90.10
2018-08-04T08:35:42.950Z,90.40
2018-08-04T08:36:46.268Z,90.00
2018-08-04T08:37:49.870Z,90.20
2018-08-04T08:38:53.175Z,90.20
2018-08-04T08:39:56.576Z,90.60
2018-08-04T08:41:00.364Z,90.60
2018-08-04T08:42:03.726Z,90.70
2018-08-04T08:43:07.208Z,90.50
2018-08-04T08:44:10.542Z,90.50
2018-08-04T08:45:13.871Z,90.40
2018-08-04T08:46:17.295Z,90.10
2018-08-04T08:47:20.671Z,89.10
2018-08-04T08:48:24.107Z,88.60
2018-08-04T08:49:27.465Z,88.00
2018-08-04T08:50:30.813Z,88.60
2018-08-04T08:51:34.161Z,88.50
2018-08-04T08:52:37.647Z,89.20
2018-08-04T08:53:41.001Z,90.10
2018-08-04T08:54:44.591Z,88.80
2018-08-04T08:55:47.903Z,88.70
2018-08-04T08:56:51.267Z,88.10
2018-08-04T08:57:54.609Z,88.50
2018-08-04T08:58:57.977Z,88.70
2018-08-04T09:00:01.341Z,88.00
2018-08-04T09:01:04.712Z,87.60
2018-08-04T09:02:08.103Z,87.50
2018-08-04T09:03:11.475Z,86.50
2018-08-04T09:04:14.792Z,86.00
2018-08-04T09:05:18.103Z,85.50
2018-08-04T09:06:21.438Z,87.00
2018-08-04T09:07:24.776Z,86.70
2018-08-04T09:08:28.132Z,86.90
2018-08-04T09:09:31.480Z,87.20
2018-08-04T09:10:34.803Z,87.30
2018-08-04T09:11:38.262Z,86.50
2018-08-04T09:12:42.108Z,87.40
2018-08-04T09:13:45.467Z,86.10
2018-08-04T09:14:48.827Z,86.00
2018-08-04T09:15:52.147Z,86.70
2018-08-04T09:16:55.474Z,85.80
2018-08-04T09:17:58.954Z,86.30
2018-08-04T09:19:02.275Z,86.50
2018-08-04T09:20:06.799Z,86.80
2018-08-04T09:21:10.158Z,87.20
2018-08-04T09:22:13.491Z,87.80
2018-08-04T09:23:16.869Z,87.80
2018-08-04T09:24:20.249Z,88.30
2018-08-04T09:25:23.577Z,88.50
2018-08-04T09:26:26.899Z,88.70
2018-08-04T09:27:30.224Z,87.70
2018-08-04T09:28:33.568Z,86.80
2018-08-04T09:29:36.901Z,86.30
2018-08-04T09:30:40.226Z,86.20
2018-08-04T09:31:43.639Z,85.70
2018-08-04T09:32:46.933Z,85.80
2018-08-04T09:33:50.278Z,86.20
2018-08-04T09:34:53.597Z,86.50
2018-08-04T09:35:56.937Z,86.30
2018-08-04T09:37:00.305Z,86.20
2018-08-04T09:38:03.663Z,85.40
2018-08-04T09:39:10.100Z,85.90
2018-08-04T09:40:14.550Z,86.10
2018-08-04T09:41:17.897Z,84.80
2018-08-04T09:42:21.206Z,84.80
2018-08-04T09:43:24.566Z,84.80
2018-08-04T09:44:27.984Z,84.70
2018-08-04T09:45:31.313Z,84.50
2018-08-04T09:46:34.618Z,83.60
2018-08-04T09:47:38.658Z,84.20
2018-08-04T09:48:41.979Z,84.60
2018-08-04T09:49:45.335Z,84.40
2018-08-04T09:50:48.667Z,83.60
2018-08-04T09:51:52.071Z,82.80
2018-08-04T09:52:55.435Z,82.70
2018-08-04T09:53:58.792Z,82.00
2018-08-04T09:55:02.294Z,80.90
2018-08-04T09:57:08.832Z,79.70
2018-08-04T09:58:12.157Z,79.30
2018-08-04T09:59:15.459Z,78.90
2018-08-04T10:00:24.054Z,78.90
2018-08-04T10:01:32.887Z,78.80
2018-08-04T10:02:36.480Z,78.70
2018-08-04T10:03:40.715Z,78.90
2018-08-04T10:04:44.044Z,78.80
2018-08-04T10:05:47.364Z,78.70
2018-08-04T10:06:50.755Z,78.30
2018-08-04T10:07:54.085Z,78.50
2018-08-04T10:08:57.420Z,79.30
2018-08-04T10:10:00.847Z,79.10
2018-08-04T10:11:04.193Z,79.40
2018-08-04T10:12:08.589Z,79.90
2018-08-04T10:13:11.910Z,79.50
2018-08-04T10:14:15.226Z,79.40
2018-08-04T10:15:18.574Z,79.40
2018-08-04T10:16:21.885Z,79.20
2018-08-04T10:17:25.194Z,80.00
2018-08-04T10:18:28.510Z,79.60
2018-08-04T10:19:31.823Z,78.70
2018-08-04T10:20:35.160Z,78.60
2018-08-04T10:21:38.474Z,77.60
2018-08-04T10:22:41.779Z,78.00
2018-08-04T10:23:45.120Z,78.00
2018-08-04T10:24:48.487Z,77.70
2018-08-04T10:25:51.935Z,77.90
2018-08-04T10:26:55.317Z,77.00
2018-08-04T10:27:58.659Z,77.40
2018-08-04T10:29:01.985Z,77.20
2018-08-04T10:30:07.855Z,77.00
2018-08-04T10:31:11.176Z,76.80
2018-08-04T10:32:14.653Z,76.90
2018-08-04T10:33:17.939Z,77.20
2018-08-04T10:34:21.367Z,77.10
2018-08-04T10:35:24.681Z,77.30
2018-08-04T10:36:28.036Z,76.60
2018-08-04T10:37:31.388Z,76.90
2018-08-04T10:38:34.791Z,76.40
2018-08-04T10:39:38.063Z,77.30
2018-08-04T10:40:41.375Z,77.10
2018-08-04T10:41:44.752Z,77.30
2018-08-04T10:42:48.068Z,77.30
2018-08-04T10:43:51.416Z,76.40
2018-08-04T10:44:54.723Z,76.30
2018-08-04T10:45:58.120Z,76.60
2018-08-04T10:48:04.764Z,75.90
2018-08-04T10:49:08.112Z,75.80
2018-08-04T10:50:11.407Z,75.50
2018-08-04T10:51:14.772Z,75.50
2018-08-04T10:52:18.094Z,75.30
2018-08-04T10:53:21.419Z,75.40
2018-08-04T10:54:24.730Z,73.90
2018-08-04T10:55:28.738Z,73.80
2018-08-04T10:56:32.119Z,72.80
2018-08-04T10:57:35.430Z,72.70
2018-08-04T10:58:38.768Z,73.00
2018-08-04T10:59:42.090Z,72.80
2018-08-04T11:00:45.438Z,72.70
2018-08-04T11:01:48.816Z,72.50
2018-08-04T11:02:52.138Z,72.80
2018-08-04T11:03:55.504Z,71.80
2018-08-04T11:04:58.896Z,71.20
2018-08-04T11:06:02.235Z,71.10
2018-08-04T11:07:05.614Z,71.10
2018-08-04T11:08:08.951Z,69.70
2018-08-04T11:09:12.492Z,69.30
2018-08-04T11:10:15.801Z,69.30
2018-08-04T11:11:19.112Z,69.10
2018-08-04T11:12:22.497Z,69.30
2018-08-04T11:13:25.858Z,68.90
2018-08-04T11:14:29.198Z,68.60
2018-08-04T11:15:32.522Z,68.70
2018-08-04T11:16:36.050Z,69.10
2018-08-04T11:17:39.371Z,69.80
2018-08-04T11:18:42.719Z,70.10
2018-08-04T11:19:46.044Z,69.60
2018-08-04T11:20:49.363Z,69.20
2018-08-04T11:23:59.754Z,67.00
2018-08-04T11:25:03.114Z,67.20
2018-08-04T11:26:06.462Z,66.80
2018-08-04T11:27:09.770Z,66.80
2018-08-04T11:28:13.124Z,67.30
2018-08-04T11:29:16.431Z,67.90
2018-08-04T11:30:19.743Z,67.10
2018-08-04T11:31:23.083Z,67.40
2018-08-04T11:32:26.407Z,66.30
2018-08-04T11:33:29.742Z,66.10
2018-08-04T11:34:33.090Z,66.00
2018-08-04T11:35:36.399Z,66.00
2018-08-04T11:36:39.706Z,65.50
2018-08-04T11:37:43.131Z,66.30
2018-08-04T11:38:46.394Z,65.30
2018-08-04T11:39:49.710Z,65.10
2018-08-04T11:40:53.030Z,66.20
2018-08-04T11:41:56.344Z,66.30
2018-08-04T11:42:59.654Z,65.10
2018-08-04T11:44:02.967Z,64.30
2018-08-04T11:45:06.541Z,64.70
2018-08-04T11:46:10.069Z,64.80
2018-08-04T11:47:13.428Z,65.50
2018-08-04T11:48:16.748Z,65.40
2018-08-04T11:49:20.090Z,65.00
2018-08-04T11:50:23.471Z,65.30
2018-08-04T11:51:26.850Z,65.20
2018-08-04T11:52:30.179Z,64.70
2018-08-04T11:53:33.527Z,65.10
2018-08-04T11:54:36.879Z,64.70
2018-08-04T11:55:40.210Z,64.90
2018-08-04T11:56:43.537Z,64.90
2018-08-04T11:57:46.872Z,65.00
2018-08-04T11:58:50.253Z,64.40
2018-08-04T11:59:53.567Z,63.70
2018-08-04T12:00:56.947Z,64.60
2018-08-04T12:02:00.384Z,64.80
2018-08-04T12:03:03.735Z,64.40
2018-08-04T12:04:07.111Z,63.70
2018-08-04T12:05:10.532Z,63.20
2018-08-04T12:06:13.942Z,62.60
2018-08-04T12:07:17.436Z,63.60
2018-08-04T12:08:21.059Z,63.00
2018-08-04T12:09:24.858Z,62.60
2018-08-04T12:10:28.374Z,63.10
2018-08-04T12:12:41.315Z,64.00
2018-08-04T12:13:44.631Z,63.80
2018-08-04T12:14:48.069Z,65.50
2018-08-04T12:15:51.644Z,65.50
2018-08-04T12:16:55.421Z,65.50
2018-08-04T12:17:58.814Z,65.10
2018-08-04T12:19:02.234Z,64.90
2018-08-04T12:20:05.786Z,63.90
2018-08-04T12:21:09.107Z,65.50
2018-08-04T12:22:12.478Z,63.90
2018-08-04T12:23:15.819Z,63.70
2018-08-04T12:24:19.204Z,64.40
2018-08-04T12:25:22.597Z,63.00
2018-08-04T12:26:25.955Z,62.10
2018-08-04T12:27:29.331Z,61.90
2018-08-04T12:28:32.664Z,61.60
2018-08-04T12:29:35.991Z,62.00
2018-08-04T12:30:39.318Z,62.00
2018-08-04T12:31:42.638Z,61.90
2018-08-04T12:32:46.067Z,60.20
2018-08-04T12:33:49.406Z,60.60
2018-08-04T12:34:52.798Z,60.70
2018-08-04T12:35:56.110Z,61.40
2018-08-04T12:36:59.468Z,61.20
2018-08-04T12:38:02.893Z,59.90
2018-08-04T12:39:08.198Z,58.60
2018-08-04T12:40:11.523Z,59.20
2018-08-04T12:41:14.955Z,58.30
2018-08-04T12:42:18.420Z,58.10
2018-08-04T12:43:21.802Z,57.90
2018-08-04T12:44:25.154Z,58.20
2018-08-04T12:45:28.491Z,58.00
2018-08-04T12:46:31.816Z,58.00
2018-08-04T12:47:35.129Z,57.30
2018-08-04T12:48:38.482Z,58.00
2018-08-04T12:49:41.800Z,58.10
2018-08-04T12:50:45.135Z,59.00
2018-08-04T12:51:48.463Z,58.80
2018-08-04T12:52:58.650Z,59.40
2018-08-04T12:54:02.331Z,58.90
2018-08-04T12:55:05.730Z,59.30
2018-08-04T12:56:09.050Z,59.20
2018-08-04T12:57:12.368Z,59.00
2018-08-04T12:58:15.771Z,58.40
2018-08-04T12:59:19.143Z,58.90
2018-08-04T13:00:22.446Z,58.90
2018-08-04T13:01:25.758Z,58.10
2018-08-04T13:02:29.120Z,58.10
2018-08-04T13:03:32.447Z,58.10
2018-08-04T13:04:35.810Z,57.30
2018-08-04T13:05:39.139Z,57.20
2018-08-04T13:06:42.460Z,57.00
2018-08-04T13:07:45.899Z,56.20
2018-08-04T13:08:49.507Z,56.10
2018-08-04T13:09:52.896Z,55.80
2018-08-04T16:44:38.330Z,48.30
2018-08-04T16:46:44.716Z,49.10
2018-08-04T16:47:48.061Z,49.10
2018-08-04T16:49:54.406Z,49.50
2018-08-04T16:50:57.751Z,48.80
2018-08-04T16:52:01.082Z,48.70
2018-08-04T16:53:04.506Z,49.20
2018-08-04T16:54:07.824Z,49.10
2018-08-04T16:55:11.134Z,49.20
2018-08-04T16:56:14.522Z,50.30
2018-08-04T16:57:17.848Z,50.00
2018-08-04T16:58:21.237Z,49.40
2018-08-04T16:59:24.603Z,49.80
2018-08-04T17:00:27.926Z,49.80
2018-08-04T17:01:31.232Z,49.70
2018-08-04T17:02:34.554Z,49.50
2018-08-04T17:03:37.899Z,50.00
2018-08-04T17:04:41.250Z,49.80
2018-08-04T17:05:44.634Z,49.60
2018-08-04T17:06:47.967Z,50.00
2018-08-04T17:07:51.320Z,50.10
2018-08-04T17:08:54.650Z,49.50
2018-08-04T17:09:57.949Z,49.40
2018-08-04T17:11:01.280Z,49.80
2018-08-04T17:12:04.669Z,50.40
2018-08-04T17:13:08.004Z,51.10
2018-08-04T17:15:14.395Z,50.70
2018-08-04T17:16:17.709Z,51.10
2018-08-04T17:17:21.050Z,51.50
2018-08-04T17:18:24.408Z,51.40
2018-08-04T17:19:27.701Z,51.30
2018-08-04T17:20:31.050Z,51.90
2018-08-04T17:21:34.443Z,51.90
2018-08-04T17:22:37.792Z,51.80
2018-08-04T17:23:41.095Z,51.50
2018-08-04T17:24:44.412Z,51.80
2018-08-04T17:25:47.769Z,52.50
2018-08-04T17:26:51.551Z,52.00
2018-08-04T17:27:54.861Z,52.20
2018-08-04T17:28:58.206Z,52.10
2018-08-04T17:30:01.511Z,52.20
2018-08-04T17:31:04.831Z,52.60
2018-08-04T17:32:08.167Z,52.20